KMMU

Morristown Municipal Airport

Morristown, New Jersey, USA
METAR KMMU 201545Z 07008KT 10SM SCT020 OVC030 22/19 A3015
Observed Flight Rules
Aug-20 @ 15:45 UTC (38 minutes ago) Marginal Visual Flight Rules
Wind Visibility Clouds
70° at 8 knots 10 miles
  • Scattered at 2,000' AGL
  • Overcast at 3,000' AGL
Temperatures Readings
Current 22°C / 72°F
Dewpoint 19°C / 66°F
Humidity 83%
Altimeter 30.15" Hg
Pressure 1021 hPa
Elevation 57
METAR KMMU 201545Z 07008KT 10SM SCT020 OVC030 22/19 A3015
Observed Flight Rules
Aug-20 @ 15:45 UTC
(38 minutes ago)
MVFR
Wind Visibility
70° at 8 knots 10 miles
Clouds
  • Scattered at 2,000' AGL
  • Overcast at 3,000' AGL
Temperature Dewpoint
22°C / 72°F 19°C / 66°F
Humidity Altimeter Pressure
83% 30.15" Hg 1021 hPa